HDAM

Djibouti

Airport
ICAO code
HDAM
Summary
ICAO Region
AFI
ICAO Territory
Location

Djibouti City,

Coordinates
11° 32' 50" N , 43° 9' 33" E
KCC
Metar
HDAM 151800Z 31005KT 6000 HZ SKC 39/23 Q1002

Description

International joint civilian/military-use airport serving Djibouti.

Climatology

Hot Desert Climate (Köppen climate classification BWh) - Hot desert climates are typically found in the subtropics where there is unbroken sunshine for the whole year due to the stable descending air and high pressure, little or no precipitation. Maximum temperatures of 40°C to 45°C are not uncommon, particularly during the warmer months of the year. During colder periods of the year, night-time temperatures can drop to freezing or below due to the exceptional radiation loss under the clear skies. However, very rarely do temperatures drop far below freezing.

Runways

Designator Length Width Surface Rops
9/27 3150 46 PEM Yes/Yes

Airport map

Aerial View

SKYbrary Partners:

Safety knowledge contributed by: